Blue Oak Ranch Reserve, California Weather observations

Data are for 10 minute period ending at time listed.
 Day   Time   Solar   Ave.   Ave.  Ave.  Vector  Max.   Baro.   Total    
  of    of     Rad.   Air    Rel.  Wind   Wind   Wind  Press.  Precip.   
Year   Day            Temp.  Hum.  Speed  Dir.   Gust                    
2024   (PST)  Kw/m2    F      %     mph   deg.    mph    mb.     in.     
-------------------------------------------------------------------------
  64    0:20   0.00   38.1   100    0.5    44     1.8   951.8    0.00 
  64    0:30   0.00   38.0   100    0.7    78     2.0   951.8    0.00 
  64    0:40   0.00   38.3   100    1.3    71     2.2   951.8    0.00 
  64    0:50   0.00   38.3   100    1.2    75     2.3   951.8    0.00 
  64    1:00   0.00   38.0   100    0.4    83     1.3   951.7    0.00 
  64    1:10   0.00   37.7   100    0.8   142     2.3   951.7    0.00 
  64    1:20   0.00   37.7   100    0.3   110     1.5   951.8    0.00 
  64    1:30   0.00   37.6   100    0.5   129     1.8   951.8    0.00 
  64    1:40   0.00   37.6   100    1.0   148     2.5   951.8    0.00 
  64    1:50   0.00   37.5   100    0.3    82     1.2   951.8    0.00 
  64    2:00   0.00   37.2   100    0.6    60     1.5   951.8    0.00 
  64    2:10   0.00   36.3   100    0.9    69     1.7   951.8    0.00 
  64    2:20   0.00   35.5   100    0.6   269     2.0   951.7    0.00 
  64    2:30   0.00   35.4   100    0.1   266     1.3   951.5    0.00 
  64    2:40   0.00   35.4   100    0.0     0     0.0   951.4    0.00 
  64    2:50   0.00   35.6   100    0.0     0     0.0   951.4    0.00 
  64    3:00   0.00   35.9   100    0.0     0     0.0   951.4    0.00 
  64    3:10   0.00   36.2   100    0.5   266     2.0   951.3    0.00 
  64    3:20   0.00   36.4   100    0.5   266     1.8   951.3    0.00 
  64    3:30   0.00   36.6   100    0.0     0     0.0   951.2    0.00 
  64    3:40   0.00   36.8   100    0.2   266     1.4   951.2    0.00 
  64    3:50   0.00   37.0   100    0.1   266     1.5   951.2    0.00 
  64    4:00   0.00   37.2   100    1.2   228     2.6   951.2    0.01 
  64    4:10   0.00   37.4   100    0.3    73     1.2   951.3    0.00 
  64    4:20   0.00   37.7   100    1.2    65     2.3   951.4    0.00 
  64    4:30   0.00   38.0   100    1.7    43     3.1   951.5    0.00 
  64    4:40   0.00   38.2   100    0.7    44     1.6   951.6    0.00 
  64    4:50   0.00   38.1   100    0.4   279     1.7   951.7    0.00 
  64    5:00   0.00   38.2   100    0.1    50     1.2   951.7    0.00 
  64    5:10   0.00   38.3   100    0.9    65     2.7   951.7    0.00 
  64    5:20   0.00   38.6   100    2.3    64     3.7   951.6    0.00 
  64    5:30   0.00   38.4   100    3.2    43     4.9   951.6    0.00 
  64    5:40   0.00   38.1   100    1.5    72     3.8   951.7    0.00 
  64    5:50   0.00   38.2   100    1.7   134     3.1   951.8    0.00 
  64    6:00   0.00   38.3   100    0.1   145     0.7   951.9    0.00 
  64    6:10   0.00   38.2   100    0.0    88     0.4   951.9    0.00 
  64    6:20   0.00   38.1   100    0.0   114     0.9   951.9    0.00 
  64    6:30   0.00   38.0   100    0.0     0     0.0   952.0    0.00 
  64    6:40   0.00   37.9   100    1.0    86     1.9   952.0    0.00 
  64    6:50   0.01   37.7   100    0.3   348     1.0   952.1    0.00 
  64    7:00   0.01   37.8   100    0.4   285     1.2   952.2    0.00 
  64    7:10   0.02   38.0   100    0.0     0     0.0   952.2    0.00 
  64    7:20   0.02   38.3   100    0.3   273     1.2   952.2    0.00 
  64    7:30   0.03   38.7   100    1.6   280     2.8   952.5    0.00 
  64    7:40   0.06   39.2   100    0.0     0     0.0   952.7    0.00 
  64    7:50   0.08   39.6   100    0.0     0     0.0   952.7    0.00 
  64    8:00   0.10   40.1   100    0.0   110     0.7   952.7    0.00 
  64    8:10   0.13   40.5   100    0.0     0     0.0   952.9    0.00 
  64    8:20   0.21   41.7    96    0.5   126     2.0   952.9    0.00 
  64    8:30   0.35   43.1    89    1.4   182     3.7   953.1    0.00 
  64    8:40   0.45   43.7    85    2.7   130     4.8   953.2    0.00 
  64    8:50   0.50   44.2    82    3.3   140     6.7   953.2    0.00 
  64    9:00   0.36   43.5    82    3.7   133     6.3   953.3    0.00 
  64    9:10   0.40   43.7    82    2.2   102     6.1   953.4    0.00 
  64    9:20   0.56   45.0    79    2.3   159     4.6   953.3    0.00 
  64    9:30   0.51   46.0    75    2.1   297     6.0   953.4    0.00 
  64    9:40   0.43   46.0    72    1.5   325     4.5   953.5    0.00 
  64    9:50   0.18   45.5    71    2.7   309     6.7   953.5    0.00 
  64   10:00   0.29   45.1    68    1.0   242     3.4   953.4    0.00 
  64   10:10   0.59   45.9    62    2.1   156     4.1   953.3    0.00 
  64   10:20   0.66   47.1    63    1.5   309     3.7   953.4    0.00 
  64   10:30   0.71   47.5    63    3.4   171     7.5   953.5    0.00 
  64   10:40   0.44   47.6    59    3.8   300     6.1   953.7    0.00 
  64   10:50   0.41   47.8    64    4.8   276     8.0   953.8    0.00 
  64   11:00   0.50   48.1    62    4.4   271     7.9   953.8    0.00 
  64   11:10   0.50   48.0    63    2.5   201     6.7   953.8    0.00 
  64   11:20   0.57   49.3    62    3.3   265     8.2   953.8    0.00 
  64   11:30   0.26   47.9    60    2.5   311     6.6   953.8    0.00 
  64   11:40   0.32   47.8    61    3.8   286     7.1   953.8    0.00 
  64   11:50   0.36   48.1    56    2.3   293     7.5   953.7    0.00 
  64   12:00   0.36   48.5    57    2.2   308     7.0   953.7    0.00 
  64   12:10   0.43   48.1    57    4.7   322     8.0   953.6    0.00 
  64   12:20   0.24   48.0    60    3.6   309     7.0   953.5    0.00 
  64   12:30   0.25   48.0    61    3.3   264     7.2   953.5    0.00 
  64   12:40   0.57   49.7    60    3.5   256     6.4   953.3    0.00 
  64   12:50   0.34   49.8    59    3.9   231     8.3   953.2    0.00 
  64   13:00   0.32   49.5    58    3.2   289     8.5   953.1    0.00 
  64   13:10   0.31   49.0    58    3.6   257     7.7   953.0    0.00 
  64   13:20   0.39   49.4    58    2.0    70     5.1   952.9    0.00 
  64   13:30   0.25   49.3    58    4.8   281     7.7   952.8    0.00 
  64   13:40   0.24   49.5    59    4.1   267     7.5   952.7    0.00 
  64   13:50   0.26   49.3    59    5.1   294    12.4   952.7    0.00 
  64   14:00   0.29   49.3    58    3.6   297     6.5   952.6    0.00 
  64   14:10   0.32   49.3    58    5.6   278    10.1   952.5    0.00 
  64   14:20   0.35   49.8    56    4.5   290     7.5   952.5    0.00 
  64   14:30   0.43   50.4    56    4.3   241     8.8   952.4    0.00 
  64   14:40   0.57   51.4    54    4.1   286     8.5   952.3    0.00 
  64   14:50   0.38   51.0    54    3.8   299     9.4   952.3    0.00 
  64   15:00   0.27   50.0    56    4.8   314     9.2   952.2    0.00 
  64   15:10   0.30   50.4    55    3.6   287     7.0   952.2    0.00 
  64   15:20   0.27   50.9    55    4.2   278     7.9   952.1    0.00 
  64   15:30   0.29   51.2    57    5.5   280     8.1   952.2    0.00 
  64   15:40   0.37   51.5    57    3.7   249     7.9   952.1    0.00 
  64   15:50   0.29   51.2    57    4.6   256     8.4   952.0    0.00 
  64   16:00   0.32   51.1    57    3.5   238     6.4   952.1    0.00 
  64   16:10   0.36   51.5    56    2.4   264     6.1   952.0    0.00 
  64   16:20   0.20   51.7    55    4.0   226     7.5   952.0    0.00 
  64   16:30   0.19   50.6    58    4.8   240     9.6   952.0    0.00 
  64   16:40   0.17   50.0    59    5.1   249     7.8   952.1    0.00 
  64   16:50   0.12   49.6    60    4.3   259     6.8   952.1    0.00 
  64   17:00   0.05   49.3    62    2.2   259     4.8   952.1    0.00 
  64   17:10   0.05   49.2    62    0.7   244     2.3   952.0    0.00 
  64   17:20   0.05   49.1    61    1.4   161     3.0   952.0    0.00 
  64   17:30   0.05   48.5    63    1.4   153     2.8   952.0    0.00 
  64   17:40   0.04   48.4    65    1.6   197     3.1   951.9    0.00 
  64   17:50   0.02   47.8    68    1.5   232     2.6   951.8    0.00 
  64   18:00   0.01   47.0    72    1.7   293     2.3   951.9    0.00 
  64   18:10   0.00   45.8    74    1.2   340     2.5   951.9    0.00 
  64   18:20   0.00   44.5    79    0.7   263     1.8   952.0    0.00 
  64   18:30   0.00   43.4    82    0.4    74     1.0   952.1    0.00 
  64   18:40   0.00   42.5    84    1.1    65     1.8   952.1    0.00 
  64   18:50   0.00   41.7    86    1.3    57     2.2   952.1    0.00 
  64   19:00   0.00   41.2    86    1.2    59     2.0   952.1    0.00 
  64   19:10   0.00   41.1    88    0.4    39     2.1   952.1    0.00 
  64   19:20   0.00   41.0    89    0.5    46     2.2   952.1    0.00 
  64   19:30   0.00   40.9    90    1.2   280     1.9   952.0    0.00 
  64   19:40   0.00   40.5    90    0.6    81     2.0   952.0    0.00 
  64   19:50   0.00   39.9    90    1.4    78     2.6   951.9    0.00 
  64   20:00   0.00   39.7    92    0.2   302     0.9   951.9    0.00 
  64   20:10   0.00   39.4    92    0.3   302     1.1   951.9    0.00 
  64   20:20   0.00   39.3    93    1.0   282     1.9   951.9    0.00 
  64   20:30   0.00   39.1    93    0.1   164     0.6   952.0    0.00 
  64   20:40   0.00   38.9    94    0.9    78     1.7   951.9    0.00 
  64   20:50   0.00   39.1    95    0.3    80     1.2   951.9    0.00 
  64   21:00   0.00   39.2    95    0.4    59     2.5   952.0    0.00 
  64   21:10   0.00   39.2    95    0.2    47     1.3   952.0    0.00 
  64   21:20   0.00   39.3    96    0.1   249     1.1   951.9    0.00 
  64   21:30   0.00   39.4    95    0.0     0     0.0   952.0    0.00 
  64   21:40   0.00   39.5    96    1.0    72     2.2   951.9    0.00 
  64   21:50   0.00   39.8    96    0.8    86     2.0   951.9    0.00 
  64   22:00   0.00   39.4    96    0.2   296     1.4   952.0    0.00 
  64   22:10   0.00   39.1    96    0.4    71     1.8   951.8    0.00 
  64   22:20   0.00   39.2    98    0.5    96     1.4   951.8    0.00 
  64   22:30   0.00   39.1    98    0.1   241     0.7   951.8    0.00 
  64   22:40   0.00   39.1    98    0.1    17     1.6   951.8    0.00 
  64   22:50   0.00   39.2    98    1.8    26     2.6   951.8    0.00 
  64   23:00   0.00   38.2    96    1.6    66     2.8   951.8    0.00 
  64   23:10   0.00   37.9    97    0.8    67     3.4   951.9    0.00 
  64   23:20   0.00   37.6    97    1.1    86     2.4   951.9    0.00 
  64   23:30   0.00   37.4    98    0.2   258     1.0   952.0    0.00 
  64   23:40   0.00   37.3    98    0.8    73     2.2   952.1    0.00 
  64   23:50   0.00   36.9    98    0.9    79     2.2   952.0    0.00 
  65    0:00   0.00   37.1    99    0.2   246     1.7   952.1    0.00 
  65    0:10   0.00   37.3    99    0.1   116     1.5   952.0    0.00 

Return to Blue Oak Ranch Reserve graphs page.


Western Regional Climate Center,wrcc@dri.edu